createdAt,value
2019-02-16T00:00:29.613Z,4.10
2019-02-16T00:02:58.178Z,4.10
2019-02-16T00:05:26.768Z,4.00
2019-02-16T00:07:55.330Z,4.00
2019-02-16T00:10:23.911Z,4.00
2019-02-16T00:12:52.471Z,4.00
2019-02-16T00:15:21.051Z,4.00
2019-02-16T00:17:49.616Z,4.00
2019-02-16T00:20:18.195Z,3.90
2019-02-16T00:22:46.759Z,3.90
2019-02-16T00:25:15.339Z,3.90
2019-02-16T00:27:43.915Z,3.90
2019-02-16T00:30:12.501Z,3.80
2019-02-16T00:32:41.159Z,3.80
2019-02-16T00:35:09.720Z,3.80
2019-02-16T00:37:38.285Z,3.70
2019-02-16T00:40:08.420Z,3.70
2019-02-16T00:42:37.040Z,3.70
2019-02-16T00:45:06.967Z,3.70
2019-02-16T00:47:35.519Z,3.70
2019-02-16T00:50:04.177Z,3.70
2019-02-16T00:52:32.747Z,3.70
2019-02-16T00:55:01.327Z,3.60
2019-02-16T00:57:29.892Z,3.60
2019-02-16T00:59:58.481Z,3.60
2019-02-16T01:02:27.043Z,3.50
2019-02-16T01:04:55.637Z,3.50
2019-02-16T01:07:24.201Z,3.50
2019-02-16T01:09:52.789Z,3.50
2019-02-16T01:12:21.343Z,3.50
2019-02-16T01:14:49.928Z,3.50
2019-02-16T01:17:18.497Z,3.40
2019-02-16T01:19:47.107Z,3.50
2019-02-16T01:22:15.657Z,3.50
2019-02-16T01:24:44.241Z,3.50
2019-02-16T01:27:12.807Z,3.50
2019-02-16T01:29:41.421Z,3.40
2019-02-16T01:32:09.971Z,3.40
2019-02-16T01:34:38.556Z,3.30
2019-02-16T01:37:07.394Z,3.30
2019-02-16T01:39:35.952Z,3.30
2019-02-16T01:42:04.544Z,3.20
2019-02-16T01:44:33.101Z,3.10
2019-02-16T01:47:01.693Z,3.10
2019-02-16T01:49:30.253Z,3.10
2019-02-16T01:51:58.848Z,3.10
2019-02-16T01:54:27.414Z,3.10
2019-02-16T01:56:55.992Z,3.00
2019-02-16T01:59:24.561Z,3.00
2019-02-16T02:01:53.144Z,3.00
2019-02-16T02:04:21.720Z,3.00
2019-02-16T02:06:50.461Z,2.90
2019-02-16T02:09:19.021Z,2.90
2019-02-16T02:11:47.613Z,2.80
2019-02-16T02:14:16.242Z,2.80
2019-02-16T02:16:44.756Z,2.70
2019-02-16T02:19:13.321Z,2.70
2019-02-16T02:21:41.903Z,2.70
2019-02-16T02:24:10.468Z,2.60
2019-02-16T02:26:39.056Z,2.60
2019-02-16T02:29:07.625Z,2.50
2019-02-16T02:31:37.626Z,2.50
2019-02-16T02:34:06.284Z,2.50
2019-02-16T02:36:34.870Z,2.50
2019-02-16T02:39:04.567Z,2.50
2019-02-16T02:41:33.152Z,2.50
2019-02-16T02:44:01.712Z,2.50
2019-02-16T02:46:30.297Z,2.50
2019-02-16T02:48:58.891Z,2.50
2019-02-16T02:51:27.541Z,2.50
2019-02-16T02:53:56.101Z,2.40
2019-02-16T02:56:24.680Z,2.40
2019-02-16T02:58:53.241Z,2.40
2019-02-16T03:01:21.829Z,2.40
2019-02-16T03:03:50.399Z,2.40
2019-02-16T03:06:18.989Z,2.40
2019-02-16T03:08:47.539Z,2.40
2019-02-16T03:11:16.121Z,2.40
2019-02-16T03:13:44.690Z,2.30
2019-02-16T03:16:13.281Z,2.20
2019-02-16T03:18:41.841Z,2.10
2019-02-16T03:21:10.441Z,2.00
2019-02-16T03:23:38.996Z,2.00
2019-02-16T03:26:10.896Z,2.00
2019-02-16T03:28:42.551Z,2.00
2019-02-16T03:31:34.070Z,1.90
2019-02-16T03:34:08.601Z,1.90
2019-02-16T03:36:46.054Z,1.90
2019-02-16T03:39:16.040Z,1.90
2019-02-16T03:41:44.632Z,1.90
2019-02-16T03:44:13.189Z,1.80
2019-02-16T03:46:41.771Z,1.80
2019-02-16T03:49:10.340Z,1.80
2019-02-16T03:51:38.919Z,1.80
2019-02-16T03:54:07.488Z,1.80
2019-02-16T03:56:36.076Z,1.70
2019-02-16T03:59:04.711Z,1.70
2019-02-16T04:01:33.320Z,1.70
2019-02-16T04:04:01.883Z,1.70
2019-02-16T04:06:30.452Z,1.70
2019-02-16T04:08:59.054Z,1.70
2019-02-16T04:11:27.620Z,1.60
2019-02-16T04:13:56.195Z,1.60
2019-02-16T04:16:24.768Z,1.60
2019-02-16T04:18:53.363Z,1.60
2019-02-16T04:21:21.928Z,1.60
2019-02-16T04:23:50.520Z,1.60
2019-02-16T04:26:19.088Z,1.60
2019-02-16T04:28:47.680Z,1.50
2019-02-16T04:31:16.247Z,1.50
2019-02-16T04:33:44.842Z,1.50
2019-02-16T04:36:13.402Z,1.50
2019-02-16T04:38:41.996Z,1.50
2019-02-16T04:41:10.560Z,1.50
2019-02-16T04:43:39.144Z,1.60
2019-02-16T04:46:07.732Z,1.60
2019-02-16T04:48:36.311Z,1.60
2019-02-16T04:51:04.880Z,1.60
2019-02-16T04:53:33.469Z,1.60
2019-02-16T04:56:02.037Z,1.50
2019-02-16T04:58:30.619Z,1.50
2019-02-16T05:00:59.216Z,1.50
2019-02-16T05:03:28.336Z,1.50
2019-02-16T05:05:59.556Z,1.50
2019-02-16T05:08:27.098Z,1.60
2019-02-16T05:10:55.684Z,1.50
2019-02-16T05:13:24.284Z,1.50
2019-02-16T05:15:52.844Z,1.50
2019-02-16T05:18:21.429Z,1.50
2019-02-16T05:20:50.025Z,1.50
2019-02-16T05:23:18.584Z,1.40
2019-02-16T05:25:47.224Z,1.40
2019-02-16T05:28:15.787Z,1.40
2019-02-16T05:30:44.369Z,1.30
2019-02-16T05:33:12.951Z,1.30
2019-02-16T05:35:41.531Z,1.30
2019-02-16T05:38:10.186Z,1.20
2019-02-16T05:40:38.804Z,1.20
2019-02-16T05:43:07.368Z,1.20
2019-02-16T05:45:35.948Z,1.10
2019-02-16T05:48:04.531Z,1.10
2019-02-16T05:50:33.116Z,1.10
2019-02-16T05:53:01.676Z,1.00
2019-02-16T05:55:30.352Z,0.90
2019-02-16T05:57:58.912Z,0.90
2019-02-16T06:00:29.142Z,0.90
2019-02-16T06:02:57.706Z,0.90
2019-02-16T06:05:26.297Z,0.80
2019-02-16T06:07:54.859Z,0.80
2019-02-16T06:10:23.438Z,0.80
2019-02-16T06:12:51.995Z,0.70
2019-02-16T06:15:20.579Z,0.70
2019-02-16T06:17:49.143Z,0.70
2019-02-16T06:20:17.732Z,0.70
2019-02-16T06:22:46.293Z,0.70
2019-02-16T06:25:14.873Z,0.70
2019-02-16T06:27:43.436Z,0.60
2019-02-16T06:30:12.025Z,0.60
2019-02-16T06:32:40.585Z,0.60
2019-02-16T06:35:13.478Z,0.60
2019-02-16T06:37:42.050Z,0.60
2019-02-16T06:40:10.656Z,0.50
2019-02-16T06:42:39.183Z,0.50
2019-02-16T06:45:07.837Z,0.50
2019-02-16T06:47:36.414Z,0.50
2019-02-16T06:50:05.815Z,0.50
2019-02-16T06:52:34.383Z,0.50
2019-02-16T06:55:02.972Z,0.50
2019-02-16T06:57:31.901Z,0.40
2019-02-16T07:00:00.511Z,0.50
2019-02-16T07:02:29.911Z,0.50
2019-02-16T07:04:58.545Z,0.50
2019-02-16T07:07:27.144Z,0.50
2019-02-16T07:09:55.701Z,0.50
2019-02-16T07:12:24.289Z,0.50
2019-02-16T07:14:52.860Z,0.50
2019-02-16T07:17:26.020Z,0.60
2019-02-16T07:19:54.843Z,0.50
2019-02-16T07:22:23.428Z,0.60
2019-02-16T07:24:52.052Z,0.60
2019-02-16T07:27:20.595Z,0.60
2019-02-16T07:29:49.227Z,0.60
2019-02-16T07:32:17.812Z,0.60
2019-02-16T07:34:46.384Z,0.70
2019-02-16T07:37:14.968Z,0.70
2019-02-16T07:39:43.528Z,0.80
2019-02-16T07:42:12.119Z,0.80
2019-02-16T07:44:42.325Z,0.80
2019-02-16T07:47:24.340Z,0.90
2019-02-16T07:49:54.553Z,0.90
2019-02-16T07:52:36.613Z,1.00
2019-02-16T07:55:10.405Z,1.00
2019-02-16T07:57:43.367Z,1.10
2019-02-16T08:00:13.640Z,1.10
2019-02-16T08:02:58.896Z,1.20
2019-02-16T08:05:29.101Z,1.20
2019-02-16T08:07:59.322Z,1.30
2019-02-16T08:10:35.224Z,1.30
2019-02-16T08:13:08.405Z,1.30
2019-02-16T08:15:50.653Z,1.40
2019-02-16T08:18:23.435Z,1.40
2019-02-16T08:21:10.100Z,1.40
2019-02-16T08:23:40.662Z,1.50
2019-02-16T08:26:23.169Z,1.60
2019-02-16T08:28:59.408Z,1.60
2019-02-16T08:31:29.636Z,1.70
2019-02-16T08:33:59.845Z,1.70
2019-02-16T08:36:35.756Z,1.80
2019-02-16T08:39:06.352Z,1.90
2019-02-16T08:41:39.148Z,2.00
2019-02-16T08:44:15.597Z,2.20
2019-02-16T08:47:02.497Z,2.30
2019-02-16T08:49:44.675Z,2.40
2019-02-16T08:52:18.039Z,2.60
2019-02-16T08:54:57.254Z,2.70
2019-02-16T08:57:44.033Z,2.90
2019-02-16T09:00:14.243Z,3.00
2019-02-16T09:02:44.485Z,3.10
2019-02-16T09:05:14.688Z,3.30
2019-02-16T09:07:50.526Z,3.40
2019-02-16T09:10:32.704Z,3.50
2019-02-16T09:13:21.140Z,3.70
2019-02-16T09:15:51.356Z,3.90
2019-02-16T09:18:33.468Z,4.10
2019-02-16T09:21:19.921Z,4.30
2019-02-16T09:23:59.561Z,4.50
2019-02-16T09:26:46.055Z,4.70
2019-02-16T09:29:31.270Z,5.00
2019-02-16T09:32:01.485Z,5.20
2019-02-16T09:34:31.708Z,5.40
2019-02-16T09:37:13.917Z,5.60
2019-02-16T09:39:46.675Z,5.80
2019-02-16T09:42:25.690Z,6.00
2019-02-16T09:44:58.628Z,6.20
2019-02-16T09:47:34.649Z,6.30
2019-02-16T09:50:11.264Z,6.60
2019-02-16T09:52:50.596Z,6.80
2019-02-16T09:55:23.539Z,7.00
2019-02-16T09:57:53.754Z,7.20
2019-02-16T10:00:26.719Z,7.40
2019-02-16T10:03:14.984Z,7.50
2019-02-16T10:05:57.249Z,7.70
2019-02-16T10:08:27.472Z,8.00
2019-02-16T10:11:06.479Z,8.10
2019-02-16T10:13:42.400Z,8.30
2019-02-16T10:16:15.105Z,8.50
2019-02-16T10:18:48.265Z,8.70
2019-02-16T10:21:35.017Z,8.90
2019-02-16T10:24:05.244Z,9.00
2019-02-16T10:26:44.028Z,9.20
2019-02-16T10:29:32.302Z,9.30
2019-02-16T10:32:14.283Z,9.50
2019-02-16T10:34:53.707Z,9.60
2019-02-16T10:37:26.616Z,9.70
2019-02-16T10:39:59.504Z,9.90
2019-02-16T10:42:33.583Z,10.00
2019-02-16T10:45:06.512Z,10.10
2019-02-16T10:47:42.603Z,10.20
2019-02-16T10:50:19.005Z,10.30
2019-02-16T10:52:49.219Z,10.50
2019-02-16T10:55:35.808Z,10.60
2019-02-16T10:58:22.219Z,10.70
2019-02-16T11:01:01.413Z,10.90
2019-02-16T11:03:34.412Z,11.10
2019-02-16T11:06:21.063Z,11.30
2019-02-16T11:08:51.271Z,11.40
2019-02-16T11:11:21.501Z,11.50
2019-02-16T11:13:54.416Z,11.70
2019-02-16T11:16:24.651Z,11.80
2019-02-16T11:18:54.860Z,12.00
2019-02-16T11:21:41.067Z,12.10
2019-02-16T11:24:11.296Z,12.30
2019-02-16T11:26:56.784Z,12.40
2019-02-16T11:29:35.716Z,12.60
2019-02-16T11:32:06.023Z,12.70
2019-02-16T11:34:42.017Z,12.90
2019-02-16T11:37:12.244Z,13.00
2019-02-16T11:39:42.456Z,13.10
2019-02-16T11:42:15.212Z,13.30
2019-02-16T11:44:57.745Z,13.40
2019-02-16T11:47:45.976Z,13.50
2019-02-16T11:50:19.028Z,13.70
2019-02-16T11:52:49.262Z,13.90
2019-02-16T11:55:31.445Z,14.10
2019-02-16T12:01:30.807Z,14.40
2019-02-16T12:04:17.161Z,14.50
2019-02-16T12:06:47.524Z,14.70
2019-02-16T12:09:33.672Z,14.80
2019-02-16T12:12:15.535Z,14.90
2019-02-16T12:15:01.987Z,15.00
2019-02-16T12:17:32.213Z,15.10
2019-02-16T12:20:02.433Z,15.20
2019-02-16T12:22:35.636Z,15.30
2019-02-16T12:25:12.324Z,15.40
2019-02-16T12:27:42.548Z,15.60
2019-02-16T12:30:25.053Z,15.70
2019-02-16T12:32:57.989Z,15.70
2019-02-16T12:35:43.207Z,15.90
2019-02-16T12:38:15.952Z,16.00
2019-02-16T12:40:46.159Z,16.10
2019-02-16T12:43:32.933Z,16.30
2019-02-16T12:46:12.132Z,16.40
2019-02-16T12:48:42.377Z,16.50
2019-02-16T12:51:29.027Z,16.60
2019-02-16T12:53:59.264Z,16.60
2019-02-16T12:56:47.758Z,16.70
2019-02-16T12:59:18.007Z,16.90
2019-02-16T13:01:48.217Z,17.00
2019-02-16T13:04:24.075Z,17.20
2019-02-16T13:07:03.607Z,17.30
2019-02-16T13:09:42.643Z,17.50
2019-02-16T13:12:24.729Z,17.60
2019-02-16T13:14:54.969Z,17.70
2019-02-16T13:17:40.172Z,17.80
2019-02-16T13:20:23.282Z,17.90
2019-02-16T13:22:56.504Z,17.90
2019-02-16T13:25:26.741Z,18.00
2019-02-16T13:27:56.948Z,18.10
2019-02-16T13:30:27.180Z,18.10
2019-02-16T13:33:09.679Z,18.10
2019-02-16T13:35:39.927Z,18.20
2019-02-16T13:38:10.131Z,18.30
2019-02-16T13:40:55.362Z,18.40
2019-02-16T13:43:25.577Z,18.40
2019-02-16T13:45:55.804Z,18.40
2019-02-16T13:48:31.704Z,18.40
2019-02-16T13:51:07.428Z,18.60
2019-02-16T13:53:55.639Z,18.60
2019-02-16T13:56:37.996Z,18.70
2019-02-16T13:59:24.577Z,18.70
2019-02-16T14:01:57.565Z,18.70
2019-02-16T14:04:39.956Z,18.60
2019-02-16T14:07:10.172Z,18.60
2019-02-16T14:09:40.401Z,18.60
2019-02-16T14:12:16.379Z,18.60
2019-02-16T14:15:02.869Z,18.60
2019-02-16T14:17:45.708Z,18.60
2019-02-16T14:20:14.352Z,18.70
2019-02-16T14:22:42.884Z,18.60
2019-02-16T14:25:16.081Z,18.60
2019-02-16T14:27:44.652Z,18.50
2019-02-16T14:30:13.652Z,18.50
2019-02-16T14:32:42.225Z,18.50
2019-02-16T14:35:10.817Z,18.50
2019-02-16T14:37:41.233Z,18.50
2019-02-16T14:40:09.828Z,18.50
2019-02-16T14:42:38.398Z,18.50
2019-02-16T14:45:12.832Z,18.40
2019-02-16T14:47:41.412Z,18.30
2019-02-16T14:50:10.820Z,18.20
2019-02-16T14:52:39.427Z,18.20
2019-02-16T14:55:13.581Z,18.10
2019-02-16T14:57:42.169Z,18.10
2019-02-16T15:00:12.469Z,18.10
2019-02-16T15:02:41.060Z,18.00
2019-02-16T15:05:10.104Z,18.00
2019-02-16T15:07:38.691Z,18.00
2019-02-16T15:10:14.346Z,18.00
2019-02-16T15:12:42.936Z,17.90
2019-02-16T15:15:12.072Z,17.80
2019-02-16T15:17:40.668Z,17.70
2019-02-16T15:20:16.963Z,17.60
2019-02-16T15:22:45.560Z,17.50
2019-02-16T15:25:14.108Z,17.40
2019-02-16T15:27:42.695Z,17.30
2019-02-16T15:30:16.960Z,17.30
2019-02-16T15:32:45.560Z,17.20
2019-02-16T15:35:14.124Z,17.20
2019-02-16T15:37:42.715Z,17.00
2019-02-16T15:40:11.555Z,16.90
2019-02-16T15:42:40.144Z,16.80
2019-02-16T15:45:11.727Z,16.80
2019-02-16T15:47:40.318Z,16.70
2019-02-16T15:50:11.126Z,16.70
2019-02-16T15:52:39.719Z,16.60
2019-02-16T15:55:10.543Z,16.50
2019-02-16T15:57:39.217Z,16.50
2019-02-16T16:00:12.716Z,16.40
2019-02-16T16:02:41.347Z,16.30
2019-02-16T16:05:09.927Z,16.30
2019-02-16T16:07:39.581Z,16.10
2019-02-16T16:10:13.124Z,16.00
2019-02-16T16:12:46.076Z,15.90
2019-02-16T16:15:22.248Z,15.80
2019-02-16T16:18:01.715Z,15.70
2019-02-16T16:20:34.361Z,15.50
2019-02-16T16:23:04.663Z,15.40
2019-02-16T16:25:50.216Z,15.30
2019-02-16T16:28:20.489Z,15.10
2019-02-16T16:31:02.289Z,15.00
2019-02-16T16:33:36.333Z,14.90
2019-02-16T16:36:09.252Z,14.70
2019-02-16T16:38:39.486Z,14.60
2019-02-16T16:41:18.384Z,14.50
2019-02-16T16:43:54.724Z,14.30
2019-02-16T16:46:24.938Z,14.20
2019-02-16T16:48:55.252Z,14.00
2019-02-16T16:51:34.443Z,13.80
2019-02-16T16:54:04.689Z,13.70
2019-02-16T16:56:34.893Z,13.50
2019-02-16T16:59:08.057Z,13.40
2019-02-16T17:01:40.958Z,13.20
2019-02-16T17:04:11.185Z,13.10
2019-02-16T17:06:44.320Z,12.90
2019-02-16T17:09:23.676Z,12.80
2019-02-16T17:12:02.861Z,12.60
2019-02-16T17:14:39.448Z,12.50
2019-02-16T17:17:09.652Z,12.30
2019-02-16T17:19:42.587Z,12.20
2019-02-16T17:22:18.808Z,12.10
2019-02-16T17:25:00.728Z,12.00
2019-02-16T17:27:48.849Z,11.80
2019-02-16T17:30:19.079Z,11.70
2019-02-16T17:32:49.283Z,11.60
2019-02-16T17:35:35.670Z,11.50
2019-02-16T17:38:05.867Z,11.40
2019-02-16T17:40:42.074Z,11.30
2019-02-16T17:43:29.015Z,11.20
2019-02-16T17:45:59.277Z,11.10
2019-02-16T17:48:32.522Z,11.00
2019-02-16T17:51:05.608Z,10.90
2019-02-16T17:53:35.819Z,10.90
2019-02-16T17:56:22.362Z,10.70
2019-02-16T17:58:52.584Z,10.70
2019-02-16T18:01:22.792Z,10.60
2019-02-16T18:03:55.987Z,10.50
2019-02-16T18:06:42.540Z,10.40
2019-02-16T18:09:18.691Z,10.40
2019-02-16T18:11:48.901Z,10.30
2019-02-16T18:14:37.176Z,10.20
2019-02-16T18:17:23.928Z,10.10
2019-02-16T18:19:57.227Z,10.10
2019-02-16T18:22:33.557Z,10.00
2019-02-16T18:25:12.959Z,9.90
2019-02-16T18:27:46.048Z,9.90
2019-02-16T18:30:22.371Z,9.80
2019-02-16T18:32:52.568Z,9.70
2019-02-16T18:35:28.522Z,9.60
2019-02-16T18:38:07.516Z,9.60
2019-02-16T18:40:40.466Z,9.50
2019-02-16T18:43:13.629Z,9.40
2019-02-16T18:45:55.956Z,9.30
2019-02-16T18:48:32.203Z,9.20
2019-02-16T18:51:02.433Z,9.10
2019-02-16T18:53:50.963Z,9.10
2019-02-16T18:56:21.196Z,9.00
2019-02-16T18:58:56.725Z,9.00
2019-02-16T19:01:27.023Z,8.90
2019-02-16T19:03:57.208Z,8.90
2019-02-16T19:06:39.543Z,8.80
2019-02-16T19:09:24.654Z,8.80
2019-02-16T19:12:11.244Z,8.70
2019-02-16T19:14:57.465Z,8.60
2019-02-16T19:17:33.898Z,8.50
2019-02-16T19:20:07.014Z,8.50
2019-02-16T19:22:37.216Z,8.40
2019-02-16T19:25:14.264Z,8.40
2019-02-16T19:27:50.392Z,8.30
2019-02-16T19:30:20.620Z,8.30
2019-02-16T19:32:50.829Z,8.30
2019-02-16T19:35:21.052Z,8.30
2019-02-16T19:37:51.260Z,8.20
2019-02-16T19:40:24.235Z,8.20
2019-02-16T19:43:06.436Z,8.10
2019-02-16T19:45:42.846Z,8.10
2019-02-16T19:48:13.044Z,8.00
2019-02-16T19:50:48.817Z,7.90
2019-02-16T19:53:34.340Z,7.90
2019-02-16T19:56:16.608Z,7.90
2019-02-16T19:58:52.852Z,7.80
2019-02-16T20:01:32.287Z,7.80
2019-02-16T20:04:11.707Z,7.70
2019-02-16T20:06:44.868Z,7.70
2019-02-16T20:09:15.079Z,7.60
2019-02-16T20:12:01.751Z,7.60
2019-02-16T20:14:41.024Z,7.60
2019-02-16T20:17:26.982Z,7.50
2019-02-16T20:20:00.386Z,7.50
2019-02-16T20:22:30.605Z,7.40
2019-02-16T20:25:12.713Z,7.40
2019-02-16T20:27:42.943Z,7.30
2019-02-16T20:30:13.218Z,7.30
2019-02-16T20:32:55.733Z,7.20
2019-02-16T20:35:28.396Z,7.20
2019-02-16T20:37:58.631Z,7.10
2019-02-16T20:40:40.855Z,7.00
2019-02-16T20:43:14.018Z,7.00
2019-02-16T20:45:47.079Z,7.00
2019-02-16T20:48:20.019Z,6.90
2019-02-16T20:50:52.922Z,6.90
2019-02-16T20:53:23.143Z,6.80
2019-02-16T20:55:59.296Z,6.70
2019-02-16T20:58:35.733Z,6.70
2019-02-16T21:01:14.910Z,6.60
2019-02-16T21:03:54.330Z,6.60
2019-02-16T21:06:36.412Z,6.60
2019-02-16T21:09:10.972Z,6.50
2019-02-16T21:11:41.179Z,6.50
2019-02-16T21:14:14.204Z,6.50
2019-02-16T21:17:02.722Z,6.40
2019-02-16T21:19:32.943Z,6.50
2019-02-16T21:22:03.151Z,6.40
2019-02-16T21:24:48.469Z,6.40
2019-02-16T21:27:22.271Z,6.30
2019-02-16T21:29:55.228Z,6.30
2019-02-16T21:32:28.463Z,6.20
2019-02-16T21:35:01.355Z,6.20
2019-02-16T21:37:43.565Z,6.20
2019-02-16T21:40:16.507Z,6.10
2019-02-16T21:42:46.740Z,6.10
2019-02-16T21:45:16.944Z,6.10
2019-02-16T21:47:55.904Z,6.00
2019-02-16T21:50:42.601Z,6.00
2019-02-16T21:53:29.417Z,6.00
2019-02-16T21:56:01.403Z,6.00
2019-02-16T21:58:46.569Z,6.00
2019-02-16T22:01:33.115Z,6.00
2019-02-16T22:04:19.224Z,5.90
2019-02-16T22:06:49.432Z,5.90
2019-02-16T22:09:19.664Z,5.90
2019-02-16T22:11:55.847Z,5.90
2019-02-16T22:14:24.432Z,5.80
2019-02-16T22:16:52.991Z,5.80
2019-02-16T22:19:21.581Z,5.80
2019-02-16T22:21:50.136Z,5.80
2019-02-16T22:24:18.723Z,5.80
2019-02-16T22:26:47.288Z,5.80
2019-02-16T22:29:15.873Z,5.80
2019-02-16T22:31:44.440Z,5.70
2019-02-16T22:34:13.023Z,5.70
2019-02-16T22:36:41.584Z,5.60
2019-02-16T22:39:10.164Z,5.60
2019-02-16T22:41:38.723Z,5.60
2019-02-16T22:44:07.308Z,5.50
2019-02-16T22:46:35.873Z,5.50
2019-02-16T22:49:04.452Z,5.50
2019-02-16T22:51:33.008Z,5.50
2019-02-16T22:54:01.588Z,5.40
2019-02-16T22:56:30.149Z,5.40
2019-02-16T22:58:58.736Z,5.40
2019-02-16T23:01:28.268Z,5.40
2019-02-16T23:03:56.859Z,5.40
2019-02-16T23:06:25.497Z,5.30
2019-02-16T23:08:54.075Z,5.30
2019-02-16T23:11:22.717Z,5.30
2019-02-16T23:13:51.306Z,5.30
2019-02-16T23:16:19.867Z,5.20
2019-02-16T23:18:48.526Z,5.20
2019-02-16T23:21:17.154Z,5.10
2019-02-16T23:23:45.680Z,5.10
2019-02-16T23:26:14.307Z,5.10
2019-02-16T23:28:42.904Z,5.00
2019-02-16T23:31:11.468Z,5.00
2019-02-16T23:33:40.055Z,5.00
2019-02-16T23:36:08.617Z,5.00
2019-02-16T23:38:37.209Z,5.00
2019-02-16T23:41:06.414Z,5.00
2019-02-16T23:43:35.269Z,5.00
2019-02-16T23:46:04.396Z,5.00
2019-02-16T23:48:33.228Z,4.90
2019-02-16T23:51:01.814Z,4.90
2019-02-16T23:53:30.386Z,4.90
2019-02-16T23:55:58.964Z,4.90
2019-02-16T23:58:27.527Z,4.80
